Date,TemperatureHighF,TemperatureAvgF,TemperatureLowF,DewpointHighF,DewpointAvgF,DewpointLowF,HumidityHigh,HumidityAvg,HumidityLow,PressureMaxIn,PressureMinIn,WindSpeedMaxMPH,WindSpeedAvgMPH,GustSpeedMaxMPH,PrecipitationSumIn
2013-4-1,31.0,25.4,20.0,17.0,14.7,11.0,73,63,51,30.10,29.88,11,7,22,0.01
2013-4-2,34.0,26.7,20.0,19.0,15.8,13.0,76,64,49,30.26,30.10,10,5,17,0.00
2013-4-3,42.0,31.0,19.0,21.0,16.1,11.0,80,56,33,30.40,30.13,7,2,11,0.00
2013-4-4,47.0,39.3,32.0,35.0,27.3,21.0,71,62,52,30.13,29.93,10,5,18,0.00
2013-4-5,40.0,34.3,26.0,31.0,22.9,19.0,95,64,46,30.21,30.04,5,2,12,0.00
2013-4-6,46.0,37.2,31.0,43.0,33.4,28.0,98,87,68,30.05,29.44,10,4,18,0.35
2013-4-7,42.0,37.0,34.0,36.0,33.2,31.0,95,86,76,29.90,29.54,10,4,20,0.25
2013-4-8,41.0,37.7,35.0,37.0,34.7,32.0,92,89,86,29.96,29.69,6,2,12,0.01
2013-4-9,40.0,36.9,34.0,38.0,34.7,28.0,98,92,73,30.03,29.93,11,5,20,0.76
2013-4-10,39.0,34.6,29.0,32.0,28.4,23.0,96,79,54,30.09,29.89,9,5,17,0.59
2013-4-11,36.0,32.4,29.0,32.0,27.7,22.0,95,84,58,29.89,29.61,15,3,23,0.25
2013-4-12,34.0,31.3,29.0,32.0,29.4,28.0,97,93,85,29.69,29.53,5,1,8,0.25
2013-4-13,33.0,30.1,25.0,30.0,26.5,23.0,94,87,77,29.92,29.68,9,4,16,0.09
2013-4-14,34.0,29.5,23.0,34.0,27.9,21.0,98,94,82,29.95,29.58,9,2,17,0.13
2013-4-15,46.0,38.3,33.0,39.0,33.1,27.0,99,82,50,29.87,29.54,13,4,24,0.40
2013-4-16,46.0,37.2,33.0,32.0,30.3,28.0,87,76,58,30.27,29.88,7,3,14,0.04
2013-4-17,39.0,35.9,32.0,35.0,31.3,28.0,96,83,76,30.29,29.88,12,4,21,0.03
2013-4-18,39.0,37.2,36.0,38.0,36.3,35.0,99,97,95,29.87,29.21,10,4,18,0.47
2013-4-19,36.0,31.0,27.0,36.0,27.6,20.0,99,87,73,29.85,29.17,17,9,29,0.21
2013-4-20,40.0,30.9,23.0,22.0,18.8,14.0,86,62,40,30.30,29.85,9,4,16,0.01
2013-4-21,43.0,34.9,30.0,39.0,30.2,20.0,96,83,61,30.38,30.10,8,4,18,0.17
2013-4-22,47.0,44.2,42.0,45.0,42.9,40.0,99,95,91,30.13,29.93,7,2,13,0.21
2013-4-23,47.0,37.0,30.0,47.0,33.1,26.0,100,86,72,29.98,29.83,11,5,23,0.20
2013-4-24,50.0,38.3,28.0,36.0,28.2,24.0,93,69,46,29.97,29.85,10,4,22,0.08
2013-4-25,47.0,38.5,34.0,35.0,32.0,29.0,97,79,52,30.18,29.87,10,4,18,0.14
2013-4-26,70.0,53.1,36.0,49.0,39.2,29.0,86,61,40,30.16,30.00,10,4,19,0.07
2013-4-27,70.0,58.8,47.0,54.0,48.9,45.0,93,71,49,30.12,29.96,7,3,14,0.01
2013-4-28,72.0,59.7,44.0,49.0,45.6,42.0,94,63,36,29.96,29.71,7,2,16,0.00
2013-4-29,72.0,61.8,52.0,58.0,52.9,45.0,92,74,55,29.76,29.65,7,2,14,0.08
2013-4-30,82.0,67.9,54.0,60.0,55.9,48.0,93,68,44,29.91,29.54,12,5,23,0.05